Terminal Aerodrome Forecast
Issued by NWS

Home | Current Version | Previous Version | Text Only | Print | Product List | Glossary On
Versions: 1 2 3 4 5 6 7 8 9 10 11 12 13 14 15 16 17 18
000
FTUS43 KEAX 151100
TAFMKC
TAF
KMKC 151120Z 1512/1612 18008KT P6SM VCTS BKN070CB
     FM151330 22009KT P6SM VCSH BKN018
     FM151800 35010KT P6SM VCSH BKN025
     FM152200 04006KT P6SM SCT025=

USA.gov is the U.S. government's official web portal to all federal, state and local government web resources and services.